Time;durP1;ratioP1;P1;durP2;ratioP2;P2;SDS_P1;SDS_P2;PMS_P1;PMS_P2;Temp;Humidity;BMP_temperature;BMP_pressure;BME280_temperature;BME280_humidity;BME280_pressure;Samples;Min_cycle;Max_cycle;Signal;HPM_P1;HPM_P2
2023/08/12 05:19:20;;;;;;;5.18;3.80;;;;;;;16.18;100.00;101100.78;5565686;27;20102;-84
2023/08/12 05:22:25;;;;;;;5.55;2.92;;;;;;;16.07;100.00;101104.84;5384163;33;33883;-84
2023/08/12 05:25:28;;;;;;;6.75;3.53;;;;;;;16.00;100.00;101105.81;5384066;33;33435;-84
2023/08/12 05:28:31;;;;;;;6.87;3.25;;;;;;;15.94;100.00;101103.88;5397043;33;33862;-84
2023/08/12 05:31:33;;;;;;;3.75;3.45;;;;;;;16.01;100.00;101102.91;5383858;33;34292;-84
2023/08/12 05:34:36;;;;;;;7.70;3.90;;;;;;;16.03;100.00;101106.28;5383750;33;33595;-84
2023/08/12 05:37:39;;;;;;;3.35;3.05;;;;;;;16.19;100.00;101107.03;5396579;33;33817;-84
2023/08/12 05:40:42;;;;;;;4.00;3.58;;;;;;;16.28;100.00;101109.41;5383744;33;33796;-84
2023/08/12 05:43:45;;;;;;;3.95;3.45;;;;;;;16.52;100.00;101109.97;5396615;33;33472;-84
2023/08/12 05:46:48;;;;;;;5.95;3.25;;;;;;;16.77;100.00;101113.94;5382989;33;33984;-84
2023/08/12 05:49:50;;;;;;;4.03;3.28;;;;;;;16.98;100.00;101110.28;5370926;33;33747;-84
2023/08/12 05:52:53;;;;;;;4.82;2.97;;;;;;;17.23;100.00;101109.78;5396751;33;33824;-83
2023/08/12 05:55:56;;;;;;;4.53;3.45;;;;;;;17.41;100.00;101103.75;5396331;33;33432;-83
2023/08/12 05:58:59;;;;;;;3.78;3.00;;;;;;;17.57;100.00;101103.38;5383645;33;33693;-83
2023/08/12 06:02:02;;;;;;;4.55;3.30;;;;;;;17.76;100.00;101104.47;5373112;33;33886;-83
2023/08/12 06:05:05;;;;;;;3.42;2.95;;;;;;;17.95;100.00;101093.81;5383092;33;33902;-83
2023/08/12 06:08:08;;;;;;;4.25;2.85;;;;;;;18.12;100.00;101101.37;5396014;33;33882;-86
2023/08/12 06:11:11;;;;;;;5.57;2.80;;;;;;;18.26;100.00;101101.37;5382689;33;33881;-84
2023/08/12 06:14:14;;;;;;;8.88;3.22;;;;;;;18.36;100.00;101097.16;5382477;33;33802;-84
2023/08/12 06:17:17;;;;;;;4.45;3.05;;;;;;;18.62;100.00;101098.16;5382633;33;33748;-84
2023/08/12 06:20:20;;;;;;;4.07;2.80;;;;;;;18.77;100.00;101096.03;5395762;33;33816;-84
2023/08/12 06:23:23;;;;;;;4.28;3.30;;;;;;;18.92;100.00;101095.78;5382618;33;34389;-84
2023/08/12 06:26:29;;;;;;;4.55;3.00;;;;;;;19.09;100.00;101090.69;5372403;33;33790;-84
2023/08/12 06:29:32;;;;;;;3.15;2.70;;;;;;;19.12;98.24;101103.06;5404598;33;33976;-83
2023/08/12 06:32:35;;;;;;;3.25;2.80;;;;;;;19.27;98.49;101092.69;5398113;33;34637;-84
2023/08/12 06:35:39;;;;;;;5.10;3.20;;;;;;;19.51;96.34;101096.59;5382804;33;35073;-84
2023/08/12 06:38:42;;;;;;;4.97;3.20;;;;;;;19.48;97.99;101088.81;5371782;33;33936;-84
2023/08/12 06:41:45;;;;;;;4.97;3.10;;;;;;;19.57;97.96;101092.09;5383931;33;33916;-88
2023/08/12 06:44:55;;;;;;;5.40;3.00;;;;;;;19.76;98.04;101090.34;5388549;33;33880;-88
2023/08/12 06:47:58;;;;;;;4.37;3.20;;;;;;;19.86;97.34;101079.75;5401184;33;33977;-84
2023/08/12 06:51:06;;;;;;;5.00;3.15;;;;;;;19.86;96.61;101085.22;5401361;33;33909;-84
2023/08/12 06:54:09;;;;;;;4.53;3.20;;;;;;;19.85;95.72;101086.28;5403850;33;35270;-84
2023/08/12 06:57:12;;;;;;;3.37;3.08;;;;;;;20.02;96.14;101098.34;5385200;33;33881;-84
2023/08/12 07:00:16;;;;;;;2.90;2.70;;;;;;;20.14;93.38;101084.78;5398147;33;34829;-84
2023/08/12 07:03:19;;;;;;;4.72;3.25;;;;;;;20.34;94.37;101082.69;5385485;33;33971;-84
2023/08/12 07:06:22;;;;;;;3.40;2.70;;;;;;;20.36;92.03;101083.31;5398398;33;33458;-84
2023/08/12 07:09:25;;;;;;;3.30;3.00;;;;;;;20.50;90.22;101083.16;5372649;33;33823;-84
2023/08/12 07:12:28;;;;;;;3.55;2.80;;;;;;;20.59;89.98;101087.31;5398073;33;35454;-84
2023/08/12 07:15:30;;;;;;;5.72;3.17;;;;;;;20.77;88.49;101089.25;5384880;33;33951;-84
2023/08/12 07:18:34;;;;;;;3.33;2.97;;;;;;;20.86;88.10;101087.03;5383780;33;33817;-84
2023/08/12 07:21:36;;;;;;;3.25;2.90;;;;;;;21.02;87.45;101086.41;5380220;33;33923;-84
2023/08/12 07:24:39;;;;;;;4.72;2.90;;;;;;;21.06;86.46;101083.00;5379903;33;33514;-84
2023/08/12 07:27:42;;;;;;;3.37;3.08;;;;;;;21.13;86.53;101088.37;5379392;33;33554;-84
2023/08/12 07:30:45;;;;;;;3.42;2.70;;;;;;;21.47;85.55;101086.91;5379102;33;34986;-84
2023/08/12 07:33:47;;;;;;;3.17;2.87;;;;;;;21.32;83.77;101082.84;5367576;33;33521;-83
2023/08/12 07:36:50;;;;;;;4.50;2.90;;;;;;;21.50;84.72;101091.06;5379718;33;35633;-84
2023/08/12 07:39:53;;;;;;;4.25;2.85;;;;;;;21.73;83.91;101082.06;5379893;33;33833;-84
2023/08/12 07:42:56;;;;;;;2.70;2.50;;;;;;;22.10;82.40;101087.38;5380028;33;34602;-84
2023/08/12 07:45:59;;;;;;;3.85;2.87;;;;;;;22.25;79.44;101085.03;5378631;33;33934;-83
2023/08/12 07:49:11;;;;;;;3.87;2.65;;;;;;;22.15;77.77;101082.88;5367254;33;33398;-84
2023/08/12 07:52:14;;;;;;;4.93;2.83;;;;;;;22.44;77.96;101080.28;5366689;33;33806;-84
2023/08/12 07:55:18;;;;;;;3.22;2.95;;;;;;;22.48;78.67;101080.63;5354109;33;33400;-84
2023/08/12 07:58:20;;;;;;;3.30;2.78;;;;;;;22.64;78.59;101074.41;5378572;33;33942;-84
2023/08/12 08:01:24;;;;;;;5.43;2.95;;;;;;;22.77;77.41;101074.13;5378183;33;34746;-84
2023/08/12 08:04:27;;;;;;;3.05;2.83;;;;;;;22.93;75.51;101077.19;5378155;33;33471;-84
2023/08/12 08:07:30;;;;;;;2.90;2.70;;;;;;;22.88;74.37;101083.44;5378134;33;35065;-84
2023/08/12 08:10:32;;;;;;;2.78;2.55;;;;;;;23.15;73.94;101077.41;5366536;33;33887;-84
2023/08/12 08:13:36;;;;;;;4.78;2.87;;;;;;;23.18;73.88;101075.00;5354141;33;33917;-84
2023/08/12 08:16:41;;;;;;;3.97;2.60;;;;;;;23.34;71.98;101072.56;5377876;33;33875;-84
2023/08/12 08:19:44;;;;;;;2.80;2.60;;;;;;;23.47;71.61;101067.59;5366304;33;33726;-84
2023/08/12 08:22:47;;;;;;;4.28;2.58;;;;;;;23.52;68.53;101073.19;5366246;33;33923;-84
2023/08/12 08:25:50;;;;;;;2.70;2.50;;;;;;;23.52;68.20;101067.69;5379760;33;33770;-84
2023/08/12 08:28:53;;;;;;;3.75;2.60;;;;;;;23.84;67.89;101072.69;5379837;33;34195;-84
2023/08/12 08:31:55;;;;;;;4.07;2.40;;;;;;;23.91;65.55;101070.59;5366581;33;34070;-84
2023/08/12 08:34:59;;;;;;;5.28;2.67;;;;;;;24.09;64.33;101068.69;5378389;33;34521;-84
2023/08/12 08:38:01;;;;;;;2.83;2.55;;;;;;;24.14;64.48;101066.03;5379498;33;34703;-84
2023/08/12 08:41:08;;;;;;;2.75;2.30;;;;;;;24.17;66.31;101062.75;5383233;33;33989;-84
2023/08/12 08:44:13;;;;;;;3.15;2.35;;;;;;;24.43;66.50;101062.09;5383546;33;33929;-84
2023/08/12 08:47:19;;;;;;;3.92;2.78;;;;;;;24.56;64.32;101060.87;5381860;33;33998;-87
2023/08/12 08:50:22;;;;;;;3.75;2.50;;;;;;;24.67;66.72;101061.84;5383487;33;33986;-88
2023/08/12 08:53:25;;;;;;;7.87;2.40;;;;;;;24.76;67.12;101059.50;5378082;33;33445;-88
2023/08/12 08:56:28;;;;;;;2.97;2.60;;;;;;;24.54;60.82;101060.31;5365550;33;34365;-84
2023/08/12 08:59:32;;;;;;;2.95;2.53;;;;;;;24.65;64.03;101050.25;5379294;33;34785;-84
2023/08/12 09:02:35;;;;;;;2.72;2.40;;;;;;;24.63;60.14;101056.03;5377850;33;34471;-84
2023/08/12 09:05:39;;;;;;;2.60;2.40;;;;;;;24.79;60.88;101061.72;5366085;33;33838;-84
2023/08/12 09:08:45;;;;;;;2.97;2.47;;;;;;;24.96;60.20;101056.16;5365870;33;34629;-84
2023/08/12 09:11:49;;;;;;;2.65;2.30;;;;;;;25.14;62.24;101060.53;5381357;33;33792;-83
2023/08/12 09:14:52;;;;;;;4.20;2.30;;;;;;;25.43;59.94;101055.59;5383791;33;33867;-83
2023/08/12 09:17:54;;;;;;;2.50;2.10;;;;;;;25.59;56.03;101043.63;5391585;33;33486;-83
2023/08/12 09:20:58;;;;;;;4.82;2.55;;;;;;;25.64;55.76;101042.84;5400563;33;34285;-83
2023/08/12 09:24:04;;;;;;;2.53;2.33;;;;;;;25.88;60.32;101037.84;5396254;33;34811;-83
2023/08/12 09:27:07;;;;;;;2.90;2.30;;;;;;;25.98;56.40;101041.50;5383387;33;34634;-83
2023/08/12 09:30:13;;;;;;;3.15;2.25;;;;;;;26.10;55.92;101046.00;5371530;33;34618;-83
2023/08/12 09:33:16;;;;;;;2.53;2.33;;;;;;;26.21;51.90;101045.81;5371999;33;33923;-83
2023/08/12 09:36:21;;;;;;;2.33;2.12;;;;;;;26.41;52.06;101038.75;5383810;33;34331;-83
2023/08/12 09:39:24;;;;;;;2.95;2.40;;;;;;;26.38;53.38;101034.56;5383180;33;33614;-83
2023/08/12 09:42:28;;;;;;;2.95;2.47;;;;;;;26.64;54.86;101032.00;5371172;33;34041;-84
2023/08/12 09:45:32;;;;;;;2.50;2.17;;;;;;;26.71;52.37;101032.59;5396431;33;34269;-83
2023/08/12 09:48:35;;;;;;;2.78;2.30;;;;;;;26.65;51.02;101023.44;5396351;33;34967;-83
2023/08/12 09:51:40;;;;;;;3.12;2.30;;;;;;;26.57;51.02;101018.44;5396652;33;33780;-84
2023/08/12 09:54:44;;;;;;;2.42;2.22;;;;;;;26.70;53.94;101022.63;5397857;33;33641;-84
2023/08/12 09:57:54;;;;;;;2.95;2.55;;;;;;;27.00;48.91;101016.41;5383370;33;34759;-83
2023/08/12 10:00:58;;;;;;;2.40;2.20;;;;;;;26.86;47.50;101013.31;5396468;33;33862;-84
2023/08/12 10:04:05;;;;;;;2.40;2.20;;;;;;;27.06;50.76;101014.47;5371139;33;33840;-84
2023/08/12 10:07:09;;;;;;;2.37;2.17;;;;;;;27.01;49.22;101004.22;5383304;33;33805;-83
2023/08/12 10:10:13;;;;;;;3.55;2.50;;;;;;;27.08;48.63;101004.78;5396386;33;34504;-84
2023/08/12 10:13:17;;;;;;;2.37;2.17;;;;;;;27.47;49.76;100997.97;5371232;33;34752;-84
2023/08/12 10:16:20;;;;;;;2.65;2.22;;;;;;;27.76;48.16;100995.50;5383196;33;34370;-84
2023/08/12 10:19:25;;;;;;;2.28;2.10;;;;;;;27.74;44.18;100995.75;5377198;33;33758;-84
2023/08/12 10:22:30;;;;;;;2.12;2.00;;;;;;;27.96;45.98;100991.88;5380342;33;34009;-84
2023/08/12 10:25:34;;;;;;;2.72;2.40;;;;;;;28.30;42.78;100997.62;5380388;33;35493;-85
2023/08/12 10:28:37;;;;;;;2.37;2.00;;;;;;;28.10;43.08;100989.37;5367602;33;34641;-84
2023/08/12 10:31:40;;;;;;;2.60;2.25;;;;;;;27.96;41.58;100991.88;5379305;33;33607;-84
2023/08/12 10:34:43;;;;;;;5.10;2.45;;;;;;;27.86;40.92;100987.19;5379984;33;33661;-84
2023/08/12 10:37:50;;;;;;;2.60;2.40;;;;;;;28.00;41.22;100990.22;5385391;33;35018;-84
2023/08/12 10:41:16;;;;;;;1.80;1.70;;;;;;;28.30;40.40;100980.19;5384163;33;33952;-87
2023/08/12 10:44:21;;;;;;;2.08;1.98;;;;;;;28.47;39.25;100975.16;5382750;33;33440;-84
2023/08/12 10:47:24;;;;;;;2.35;2.15;;;;;;;28.68;38.36;100970.38;5383146;33;33992;-84
2023/08/12 10:50:27;;;;;;;2.22;2.03;;;;;;;28.68;37.22;100970.38;5379230;33;33946;-84
2023/08/12 10:53:35;;;;;;;1.85;1.75;;;;;;;28.93;38.80;100964.69;5378948;33;33454;-84
2023/08/12 10:57:03;;;;;;;2.20;2.00;;;;;;;29.15;32.64;100969.00;5380111;33;34726;-84
2023/08/12 11:00:11;;;;;;;2.42;1.83;;;;;;;29.91;33.91;100963.97;5380334;33;34450;-84
2023/08/12 11:03:14;;;;;;;1.90;1.80;;;;;;;30.33;36.40;100962.41;5380128;33;33596;-83
2023/08/12 11:06:19;;;;;;;2.08;1.87;;;;;;;30.97;34.47;100962.97;5379838;33;34004;-84
2023/08/12 11:09:22;;;;;;;4.25;1.77;;;;;;;31.13;31.65;100956.88;5379869;33;34720;-83
2023/08/12 11:12:34;;;;;;;2.15;1.50;;;;;;;31.55;30.04;100954.28;5379007;33;33796;-83
2023/08/12 11:15:38;;;;;;;1.70;1.60;;;;;;;31.71;31.02;100949.25;5379030;33;34522;-84
2023/08/12 11:18:41;;;;;;;2.45;2.00;;;;;;;31.98;27.56;100949.34;5378435;33;34640;-84
2023/08/12 11:21:47;;;;;;;2.40;1.65;;;;;;;32.12;28.34;100937.38;5366912;33;33392;-83
2023/08/12 11:24:51;;;;;;;3.25;1.92;;;;;;;32.32;29.32;100934.16;5378719;33;35403;-83
2023/08/12 11:27:53;;;;;;;1.90;1.80;;;;;;;32.58;30.29;100930.88;5383889;33;33805;-83
2023/08/12 11:30:57;;;;;;;2.08;1.87;;;;;;;33.19;30.18;100930.28;5355228;33;33616;-84
2023/08/12 11:33:59;;;;;;;3.00;1.95;;;;;;;33.76;27.46;100926.91;5366600;33;33881;-83
2023/08/12 11:37:03;;;;;;;2.22;2.03;;;;;;;33.90;27.56;100924.00;5366952;33;33973;-84
2023/08/12 11:40:10;;;;;;;2.35;1.80;;;;;;;34.57;29.01;100925.75;5378748;33;34763;-83
2023/08/12 11:43:14;;;;;;;1.60;1.50;;;;;;;35.52;26.56;100929.69;5378492;33;33921;-84
2023/08/12 11:46:16;;;;;;;3.72;1.90;;;;;;;36.68;24.47;100915.34;5366616;33;34572;-84
2023/08/12 11:49:19;;;;;;;2.28;1.85;;;;;;;36.68;23.95;100912.56;5366471;33;33537;-84
2023/08/12 11:52:23;;;;;;;1.90;1.73;;;;;;;36.58;23.14;100915.75;5366243;33;34602;-83
2023/08/12 11:55:26;;;;;;;2.30;1.60;;;;;;;37.35;23.59;100912.63;5378754;33;33527;-84
2023/08/12 11:58:36;;;;;;;1.70;1.60;;;;;;;37.60;23.50;100908.75;5378771;33;34602;-83
2023/08/12 12:01:55;;;;;;;2.00;1.77;;;;;;;38.65;24.08;100907.38;5380418;33;33966;-84
2023/08/12 12:04:57;;;;;;;1.50;1.40;;;;;;;38.93;22.11;100904.59;5367577;33;33863;-84
2023/08/12 12:08:00;;;;;;;1.40;1.30;;;;;;;40.62;20.05;100899.31;5384623;33;33736;-84
2023/08/12 12:11:06;;;;;;;1.83;1.73;;;;;;;41.88;18.87;100891.28;5394092;33;35314;-84
2023/08/12 12:14:10;;;;;;;3.10;1.47;;;;;;;41.68;18.93;100888.53;5382461;33;35245;-84
2023/08/12 12:17:14;;;;;;;2.65;1.80;;;;;;;40.28;19.84;100884.84;5380432;32;34840;-84
2023/08/12 12:20:18;;;;;;;1.60;1.50;;;;;;;41.00;19.65;100877.91;5409302;33;33540;-85
2023/08/12 12:23:21;;;;;;;1.67;1.52;;;;;;;41.95;19.37;100879.28;5410992;33;35179;-83
2023/08/12 12:26:24;;;;;;;2.35;1.40;;;;;;;41.58;19.33;100875.03;5372543;33;33525;-83
2023/08/12 12:29:28;;;;;;;3.25;1.20;;;;;;;41.83;18.34;100874.63;5398020;33;33879;-83
2023/08/12 12:32:31;;;;;;;2.05;1.40;;;;;;;42.20;18.21;100872.00;5384416;33;33911;-83
2023/08/12 12:35:37;;;;;;;1.60;1.37;;;;;;;42.21;18.21;100873.63;5398618;33;34611;-82
2023/08/12 12:38:58;;;;;;;1.30;1.20;;;;;;;41.62;18.94;100864.59;5390168;33;33767;-82
2023/08/12 12:42:01;;;;;;;2.58;1.40;;;;;;;42.76;17.67;100861.88;5387228;33;33739;-82
2023/08/12 12:45:04;;;;;;;1.92;1.50;;;;;;;42.98;17.29;100855.25;5386242;33;34290;-82
2023/08/12 12:48:07;;;;;;;2.67;1.27;;;;;;;43.00;19.08;100849.19;5387275;33;33990;-82
2023/08/12 12:51:11;;;;;;;2.25;1.70;;;;;;;44.71;16.91;100855.41;5397655;33;33723;-83
2023/08/12 12:54:14;;;;;;;2.17;1.48;;;;;;;45.22;16.29;100848.66;5372340;33;33821;-83
2023/08/12 12:57:17;;;;;;;1.70;1.60;;;;;;;43.72;17.04;100847.91;5384230;33;33965;-83
2023/08/12 13:00:20;;;;;;;2.40;1.52;;;;;;;42.92;17.30;100841.84;5397375;33;34675;-83
2023/08/12 13:03:23;;;;;;;1.15;1.10;;;;;;;43.79;16.00;100842.28;5384121;33;33675;-83
2023/08/12 13:06:26;;;;;;;1.80;1.33;;;;;;;43.81;17.30;100845.53;5384036;33;33952;-83
2023/08/12 13:09:30;;;;;;;2.78;1.30;;;;;;;45.16;16.78;100838.91;5371823;33;33735;-83
2023/08/12 13:12:34;;;;;;;1.40;1.17;;;;;;;46.08;15.31;100830.81;5384757;33;33868;-83
2023/08/12 13:15:36;;;;;;;1.55;1.37;;;;;;;45.45;14.99;100827.56;5371949;33;33770;-83
2023/08/12 13:18:39;;;;;;;1.40;1.30;;;;;;;44.92;15.85;100828.31;5371844;33;34176;-83
2023/08/12 13:21:42;;;;;;;2.05;1.95;;;;;;;44.12;17.73;100827.13;5383665;33;34635;-83
2023/08/12 13:24:46;;;;;;;1.40;1.30;;;;;;;45.96;14.78;100819.84;5397138;33;33795;-83
2023/08/12 13:27:49;;;;;;;1.52;1.42;;;;;;;46.57;16.09;100818.44;5397022;33;33687;-83
2023/08/12 13:30:52;;;;;;;2.17;1.52;;;;;;;47.20;13.93;100820.53;5400727;33;34983;-83
2023/08/12 13:33:54;;;;;;;1.37;1.27;;;;;;;47.13;14.51;100823.44;5375923;33;34190;-83
2023/08/12 13:36:57;;;;;;;1.52;1.42;;;;;;;47.26;14.85;100818.84;5397101;33;33584;-83
2023/08/12 13:40:00;;;;;;;1.58;1.37;;;;;;;47.71;14.41;100813.16;5383375;33;33982;-83
2023/08/12 13:43:03;;;;;;;1.50;1.40;;;;;;;46.56;15.50;100802.56;5383547;33;33820;-83
2023/08/12 13:46:06;;;;;;;1.20;1.10;;;;;;;45.90;15.54;100808.09;5396781;33;33777;-83
2023/08/12 13:49:09;;;;;;;1.60;1.50;;;;;;;44.45;16.55;100804.59;5396697;33;33703;-83
2023/08/12 13:52:12;;;;;;;2.22;1.55;;;;;;;45.43;16.03;100793.88;5383220;33;33822;-87
2023/08/12 13:55:15;;;;;;;1.30;1.20;;;;;;;45.00;16.33;100795.84;5397509;33;33842;-87
2023/08/12 13:58:18;;;;;;;2.28;1.67;;;;;;;45.74;16.07;100804.81;5373197;33;32904;-87
2023/08/12 14:01:21;;;;;;;2.00;1.67;;;;;;;45.87;16.06;100792.59;5398478;33;33513;-87
2023/08/12 14:04:24;;;;;;;1.37;1.27;;;;;;;43.65;16.98;100796.81;5385596;33;33863;-83
2023/08/12 14:07:27;;;;;;;1.00;1.00;;;;;;;43.21;17.92;100789.94;5399025;33;34538;-83
2023/08/12 14:10:30;;;;;;;1.52;1.40;;;;;;;42.84;18.05;100789.13;5373385;33;34737;-83
2023/08/12 14:13:32;;;;;;;1.55;1.45;;;;;;;43.48;18.02;100782.06;5385241;33;35516;-82
2023/08/12 14:16:36;;;;;;;1.50;1.27;;;;;;;42.41;18.11;100783.75;5373106;33;33452;-83
2023/08/12 14:19:41;;;;;;;1.80;1.55;;;;;;;41.04;19.55;100774.28;5398577;33;34635;-82
2023/08/12 14:22:44;;;;;;;1.40;1.30;;;;;;;38.01;22.28;100776.78;5398135;33;34493;-82
2023/08/12 14:25:47;;;;;;;1.40;1.30;;;;;;;35.76;26.87;100770.28;5372991;33;33890;-82
2023/08/12 14:28:50;;;;;;;2.37;1.55;;;;;;;34.56;28.07;100777.88;5384915;33;33445;-82
2023/08/12 14:31:52;;;;;;;1.83;1.60;;;;;;;32.95;29.81;100774.34;5385064;33;33823;-82
2023/08/12 14:34:55;;;;;;;2.35;1.50;;;;;;;32.42;31.31;100772.31;5384982;33;33539;-83
2023/08/12 14:37:58;;;;;;;2.15;1.55;;;;;;;31.95;31.75;100774.50;5398332;33;35583;-83
2023/08/12 14:41:02;;;;;;;2.20;1.98;;;;;;;31.31;32.48;100767.97;5373363;33;33613;-83
2023/08/12 14:44:05;;;;;;;2.33;1.92;;;;;;;31.45;32.50;100768.84;5398371;33;35270;-83
2023/08/12 14:47:08;;;;;;;2.42;1.83;;;;;;;31.26;33.22;100765.28;5372870;33;35163;-83
2023/08/12 14:50:11;;;;;;;2.62;2.03;;;;;;;30.73;33.92;100764.50;5372769;33;33885;-83
2023/08/12 14:53:14;;;;;;;2.15;1.95;;;;;;;30.45;34.53;100763.59;5373056;33;33982;-83
2023/08/12 14:56:17;;;;;;;1.80;1.70;;;;;;;30.38;34.31;100757.56;5385955;33;33896;-83
